Time;durP1;ratioP1;P1;durP2;ratioP2;P2;SDS_P1;SDS_P2;PMS_P1;PMS_P2;Temp;Humidity;BMP_temperature;BMP_pressure;BME280_temperature;BME280_humidity;BME280_pressure;Samples;Min_cycle;Max_cycle;Signal;HPM_P1;HPM_P2
2021/05/23 00:01:09;;;;;;;3.60;1.58;;;;;;;;;;5052741;28;20535;-6
2021/05/23 00:03:34;;;;;;;3.67;1.73;;;;;;;;;;5052745;28;20036;-6
2021/05/23 00:06:00;;;;;;;3.30;1.52;;;;;;;;;;5052669;28;20021;-6
2021/05/23 00:08:26;;;;;;;3.20;1.60;;;;;;;;;;5052715;28;20013;-6
2021/05/23 00:10:51;;;;;;;3.03;1.67;;;;;;;;;;5052446;28;20422;-6
2021/05/23 00:13:18;;;;;;;1.67;1.27;;;;;;;;;;5052466;28;20095;-6
2021/05/23 00:15:48;;;;;;;3.78;1.42;;;;;;;;;;5052500;28;20033;-7
2021/05/23 00:18:13;;;;;;;1.55;1.45;;;;;;;;;;5052599;28;20391;-5
2021/05/23 00:20:39;;;;;;;1.73;1.00;;;;;;;;;;5052359;28;20028;-7
2021/05/23 00:23:05;;;;;;;1.38;1.00;;;;;;;;;;5051264;28;20017;-5
2021/05/23 00:25:31;;;;;;;2.63;1.17;;;;;;;;;;5052337;28;20028;-5
2021/05/23 00:27:57;;;;;;;1.75;0.80;;;;;;;;;;5052369;28;20027;-5
2021/05/23 00:30:22;;;;;;;4.22;1.60;;;;;;;;;;5052450;28;20029;-5
2021/05/23 00:32:49;;;;;;;2.08;1.20;;;;;;;;;;5052163;28;20017;-7
2021/05/23 00:35:15;;;;;;;2.85;1.20;;;;;;;;;;5052138;28;20067;-5
2021/05/23 00:37:40;;;;;;;4.03;1.77;;;;;;;;;;5052035;28;20025;-6
2021/05/23 00:40:06;;;;;;;5.05;1.40;;;;;;;;;;5052062;28;20029;-5
2021/05/23 00:42:32;;;;;;;3.60;1.27;;;;;;;;;;5052376;28;20494;-6
2021/05/23 00:44:58;;;;;;;2.92;1.13;;;;;;;;;;5050739;28;20383;-6
2021/05/23 00:47:24;;;;;;;1.40;0.80;;;;;;;;;;5052092;28;20032;-6
2021/05/23 00:49:49;;;;;;;1.35;1.10;;;;;;;;;;5051954;28;20033;-6
2021/05/23 00:52:14;;;;;;;3.75;1.75;;;;;;;;;;5051996;28;20017;-5
2021/05/23 00:54:40;;;;;;;1.25;0.90;;;;;;;;;;5051885;28;20040;-6
2021/05/23 00:57:06;;;;;;;1.83;1.20;;;;;;;;;;5050636;28;20033;-5
2021/05/23 00:59:32;;;;;;;2.10;1.05;;;;;;;;;;5051971;28;20033;-6
2021/05/23 01:01:57;;;;;;;0.75;0.75;;;;;;;;;;5053566;28;20032;-6
2021/05/23 01:04:23;;;;;;;1.02;0.80;;;;;;;;;;5056034;28;20025;-6
2021/05/23 01:06:49;;;;;;;2.63;0.85;;;;;;;;;;5055728;28;20028;-6
2021/05/23 01:09:14;;;;;;;1.60;1.00;;;;;;;;;;5055836;28;20499;-6
2021/05/23 01:11:40;;;;;;;7.28;0.85;;;;;;;;;;5055662;28;20033;-6
2021/05/23 01:14:11;;;;;;;4.40;1.13;;;;;;;;;;5055625;28;20029;-4
2021/05/23 01:16:51;;;;;;;1.35;0.70;;;;;;;;;;5055459;28;20033;-5
2021/05/23 01:19:21;;;;;;;1.15;1.05;;;;;;;;;;5055801;28;20025;-6
2021/05/23 01:21:52;;;;;;;1.25;1.00;;;;;;;;;;5055540;28;20057;-6
2021/05/23 01:24:21;;;;;;;2.63;1.10;;;;;;;;;;5055853;28;20029;-7
2021/05/23 01:26:53;;;;;;;3.97;1.05;;;;;;;;;;5054038;28;20021;-5
2021/05/23 01:29:20;;;;;;;0.60;0.60;;;;;;;;;;5055363;28;20038;-6
2021/05/23 01:31:46;;;;;;;1.42;0.73;;;;;;;;;;5055341;28;20530;-5
2021/05/23 01:34:16;;;;;;;1.80;1.02;;;;;;;;;;5055211;28;20471;-6
2021/05/23 01:36:41;;;;;;;2.67;1.17;;;;;;;;;;5055126;28;20033;-7
2021/05/23 01:39:08;;;;;;;1.10;0.82;;;;;;;;;;5055422;28;20094;-6
2021/05/23 01:41:34;;;;;;;1.00;0.85;;;;;;;;;;5053768;28;20410;-5
2021/05/23 01:43:59;;;;;;;1.98;0.80;;;;;;;;;;5055365;28;20470;-5
2021/05/23 01:46:25;;;;;;;1.85;1.05;;;;;;;;;;5055145;28;20070;-5
2021/05/23 01:48:51;;;;;;;2.83;0.77;;;;;;;;;;5055209;28;20040;-6
2021/05/23 01:51:16;;;;;;;2.97;0.60;;;;;;;;;;5055292;28;20074;-5
2021/05/23 01:53:42;;;;;;;3.65;0.90;;;;;;;;;;5055141;28;20468;-5
2021/05/23 01:56:09;;;;;;;2.47;0.75;;;;;;;;;;5054668;28;20471;-7
2021/05/23 01:58:35;;;;;;;1.13;0.88;;;;;;;;;;5055105;28;20380;-6
2021/05/23 02:01:00;;;;;;;1.75;0.68;;;;;;;;;;5053491;28;20024;-6
2021/05/23 02:03:30;;;;;;;1.67;0.95;;;;;;;;;;5055008;28;20039;-7
2021/05/23 02:05:57;;;;;;;0.45;0.45;;;;;;;;;;5054791;28;20380;-6
2021/05/23 02:08:23;;;;;;;1.27;1.13;;;;;;;;;;5053355;28;20033;-7
2021/05/23 02:10:49;;;;;;;2.38;0.73;;;;;;;;;;5054517;28;20024;-6
2021/05/23 02:13:15;;;;;;;2.80;0.88;;;;;;;;;;5053839;28;20025;-5
2021/05/23 02:15:41;;;;;;;2.15;0.80;;;;;;;;;;5054642;28;20349;-6
2021/05/23 02:18:07;;;;;;;0.82;0.68;;;;;;;;;;5053022;28;20045;-6
2021/05/23 02:20:34;;;;;;;4.07;0.63;;;;;;;;;;5054481;28;20046;-7
2021/05/23 02:23:00;;;;;;;1.52;0.90;;;;;;;;;;5054352;28;20033;-6
2021/05/23 02:25:27;;;;;;;0.63;0.60;;;;;;;;;;5054358;28;20017;-7
2021/05/23 02:27:54;;;;;;;0.88;0.63;;;;;;;;;;5052832;28;20025;-6
2021/05/23 02:30:23;;;;;;;3.05;0.80;;;;;;;;;;5054508;28;20028;-7
2021/05/23 02:32:49;;;;;;;4.88;0.73;;;;;;;;;;5054378;28;20174;-6
2021/05/23 02:35:15;;;;;;;0.68;0.60;;;;;;;;;;5054452;28;20408;-5
2021/05/23 02:37:41;;;;;;;1.45;0.73;;;;;;;;;;5054007;28;20036;-6
2021/05/23 02:40:08;;;;;;;0.75;0.73;;;;;;;;;;5053999;28;20063;-6
2021/05/23 02:42:33;;;;;;;2.67;0.50;;;;;;;;;;5054302;28;20033;-5
2021/05/23 02:44:59;;;;;;;0.43;0.40;;;;;;;;;;5053792;28;20020;-5
2021/05/23 02:47:24;;;;;;;1.58;0.57;;;;;;;;;;5053977;28;20392;-6
2021/05/23 02:49:49;;;;;;;1.63;1.08;;;;;;;;;;5053833;28;20052;-6
2021/05/23 02:52:15;;;;;;;3.72;0.80;;;;;;;;;;5053740;28;20028;-6
2021/05/23 02:54:40;;;;;;;1.40;0.90;;;;;;;;;;5053601;28;20077;-6
2021/05/23 02:57:06;;;;;;;1.23;0.90;;;;;;;;;;5053678;28;20040;-6
2021/05/23 02:59:31;;;;;;;1.08;0.52;;;;;;;;;;5053684;28;20040;-5
2021/05/23 03:01:58;;;;;;;1.40;0.65;;;;;;;;;;5053563;28;20035;-6
2021/05/23 03:04:23;;;;;;;0.57;0.50;;;;;;;;;;5053498;28;20051;-6
2021/05/23 03:06:49;;;;;;;0.47;0.40;;;;;;;;;;5053518;28;20033;-6
2021/05/23 03:09:14;;;;;;;0.52;0.45;;;;;;;;;;5053531;28;20067;-6
2021/05/23 03:11:40;;;;;;;0.50;0.38;;;;;;;;;;5053771;28;20029;-5
2021/05/23 03:14:05;;;;;;;1.17;0.50;;;;;;;;;;5053256;28;20044;-4
2021/05/23 03:16:31;;;;;;;4.03;0.50;;;;;;;;;;5053484;28;20029;-6
2021/05/23 03:18:56;;;;;;;0.85;0.70;;;;;;;;;;5053329;28;20021;-6
2021/05/23 03:21:21;;;;;;;0.93;0.35;;;;;;;;;;5053278;28;20064;-5
2021/05/23 03:23:47;;;;;;;5.38;0.50;;;;;;;;;;5053503;28;20029;-6
2021/05/23 03:26:12;;;;;;;1.05;0.63;;;;;;;;;;5053168;28;20032;-7
2021/05/23 03:28:38;;;;;;;0.60;0.50;;;;;;;;;;5053088;28;20024;-8
2021/05/23 03:31:03;;;;;;;5.78;0.55;;;;;;;;;;5053122;28;20033;-6
2021/05/23 03:33:28;;;;;;;1.40;0.50;;;;;;;;;;5053116;28;20100;-5
2021/05/23 03:35:54;;;;;;;0.40;0.40;;;;;;;;;;5052811;28;20037;-5
2021/05/23 03:38:19;;;;;;;0.70;0.50;;;;;;;;;;5053057;28;20035;-6
2021/05/23 03:40:44;;;;;;;0.85;0.40;;;;;;;;;;5051580;28;20132;-6
2021/05/23 03:43:10;;;;;;;2.17;0.47;;;;;;;;;;5052775;28;20071;-5
2021/05/23 03:45:35;;;;;;;0.50;0.45;;;;;;;;;;5051530;28;20035;-5
2021/05/23 03:48:01;;;;;;;1.20;0.63;;;;;;;;;;5052742;28;20024;-5
2021/05/23 03:50:27;;;;;;;0.50;0.50;;;;;;;;;;5053123;28;20090;-6
2021/05/23 03:52:53;;;;;;;1.48;0.40;;;;;;;;;;5052674;28;20043;-6
2021/05/23 03:55:19;;;;;;;1.10;0.65;;;;;;;;;;5052579;28;20143;-6
2021/05/23 03:57:44;;;;;;;0.30;0.30;;;;;;;;;;5052890;28;20467;-6
2021/05/23 04:00:11;;;;;;;1.15;0.28;;;;;;;;;;5052579;28;20029;-5
2021/05/23 04:02:41;;;;;;;0.30;0.30;;;;;;;;;;5035271;28;20017;-7
2021/05/23 04:05:06;;;;;;;2.70;0.93;;;;;;;;;;5052384;28;20032;-9
2021/05/23 04:07:32;;;;;;;0.90;0.77;;;;;;;;;;5052458;28;20103;-5
2021/05/23 04:09:58;;;;;;;4.47;0.50;;;;;;;;;;5051037;28;20492;-6
2021/05/23 04:12:34;;;;;;;0.98;0.40;;;;;;;;;;5051196;28;20043;-6
2021/05/23 04:14:59;;;;;;;2.10;0.63;;;;;;;;;;5052617;28;20036;-6
2021/05/23 04:17:27;;;;;;;1.08;0.70;;;;;;;;;;5052426;28;20383;-6
2021/05/23 04:19:52;;;;;;;1.35;0.57;;;;;;;;;;5052321;28;20025;-5
2021/05/23 04:22:17;;;;;;;2.38;0.50;;;;;;;;;;5052676;28;20048;-5
2021/05/23 04:24:43;;;;;;;1.33;0.50;;;;;;;;;;5052116;28;20033;-6
2021/05/23 04:27:08;;;;;;;3.00;0.40;;;;;;;;;;5052541;28;20108;-6
2021/05/23 04:29:35;;;;;;;1.10;0.40;;;;;;;;;;5052145;28;20112;-6
2021/05/23 04:32:02;;;;;;;1.35;0.43;;;;;;;;;;5052129;28;20029;-6
2021/05/23 04:34:27;;;;;;;0.43;0.40;;;;;;;;;;5052222;28;20423;-6
2021/05/23 04:36:53;;;;;;;0.63;0.60;;;;;;;;;;5053422;28;20051;-6
2021/05/23 04:39:18;;;;;;;0.47;0.45;;;;;;;;;;5056353;28;20460;-6
2021/05/23 04:41:44;;;;;;;2.70;0.38;;;;;;;;;;5056295;28;20025;-6
2021/05/23 04:44:09;;;;;;;0.70;0.47;;;;;;;;;;5056055;28;20124;-5
2021/05/23 04:46:34;;;;;;;1.50;0.52;;;;;;;;;;5056124;28;20021;-6
2021/05/23 04:49:00;;;;;;;1.83;0.70;;;;;;;;;;5056094;28;20112;-6
2021/05/23 04:51:25;;;;;;;0.82;0.45;;;;;;;;;;5056736;28;20052;-5
2021/05/23 04:53:51;;;;;;;1.10;0.52;;;;;;;;;;5055891;28;20434;-6
2021/05/23 04:56:16;;;;;;;0.38;0.38;;;;;;;;;;5055878;28;20049;-6
2021/05/23 04:58:41;;;;;;;0.55;0.55;;;;;;;;;;5054626;28;20048;-7
2021/05/23 05:01:07;;;;;;;2.17;0.60;;;;;;;;;;5055813;28;20407;-6
2021/05/23 05:03:32;;;;;;;1.50;0.52;;;;;;;;;;5056219;28;20039;-6
2021/05/23 05:05:57;;;;;;;0.93;0.60;;;;;;;;;;5055573;28;20023;-6
2021/05/23 05:08:23;;;;;;;1.35;0.60;;;;;;;;;;5055827;28;20118;-6
2021/05/23 05:10:48;;;;;;;0.45;0.43;;;;;;;;;;5056106;28;20044;-5
2021/05/23 05:13:13;;;;;;;0.95;0.50;;;;;;;;;;5054345;28;20104;-7
2021/05/23 05:15:39;;;;;;;1.08;0.77;;;;;;;;;;5055897;28;20032;-5
2021/05/23 05:18:04;;;;;;;2.30;0.55;;;;;;;;;;5055488;28;20090;-6
2021/05/23 05:20:30;;;;;;;0.80;0.57;;;;;;;;;;5055651;28;20017;-6
2021/05/23 05:22:55;;;;;;;0.80;0.50;;;;;;;;;;5055463;28;20029;-6
2021/05/23 05:25:21;;;;;;;2.72;0.40;;;;;;;;;;5055511;28;20014;-6
2021/05/23 05:27:46;;;;;;;0.93;0.68;;;;;;;;;;5055426;28;20041;-6
2021/05/23 05:30:12;;;;;;;1.50;0.57;;;;;;;;;;5055391;28;20017;-4
2021/05/23 05:32:37;;;;;;;2.00;0.85;;;;;;;;;;5055703;28;20078;-4
2021/05/23 05:35:03;;;;;;;6.25;1.25;;;;;;;;;;5055440;28;20459;-4
2021/05/23 05:37:29;;;;;;;4.38;0.90;;;;;;;;;;5055488;28;20391;-4
2021/05/23 05:39:54;;;;;;;2.08;0.82;;;;;;;;;;5055269;28;20017;-5
2021/05/23 05:42:20;;;;;;;4.65;0.70;;;;;;;;;;5055134;28;20400;-3
2021/05/23 05:44:45;;;;;;;1.52;0.80;;;;;;;;;;5055396;28;20017;-5
2021/05/23 05:47:11;;;;;;;0.65;0.63;;;;;;;;;;5054995;28;20032;-4
2021/05/23 05:49:37;;;;;;;1.77;0.90;;;;;;;;;;5054989;28;20021;-6
2021/05/23 05:52:03;;;;;;;1.95;0.82;;;;;;;;;;5055006;28;20032;-4
2021/05/23 05:54:28;;;;;;;1.23;0.95;;;;;;;;;;5054649;28;20049;-6
2021/05/23 05:56:54;;;;;;;2.13;1.35;;;;;;;;;;5053484;28;20037;-5
2021/05/23 05:59:19;;;;;;;0.90;0.80;;;;;;;;;;5055161;28;20029;-6
2021/05/23 06:01:45;;;;;;;4.72;1.23;;;;;;;;;;5054917;28;20464;-6
2021/05/23 06:04:10;;;;;;;4.07;1.50;;;;;;;;;;5054698;28;20475;-6
2021/05/23 06:06:36;;;;;;;1.75;1.20;;;;;;;;;;5053381;28;20061;-6
2021/05/23 06:09:01;;;;;;;2.97;1.20;;;;;;;;;;5054688;28;20021;-6
2021/05/23 06:11:26;;;;;;;1.58;1.08;;;;;;;;;;5054826;28;20044;-6
2021/05/23 06:13:52;;;;;;;3.70;1.23;;;;;;;;;;5054601;28;20048;-6
2021/05/23 06:16:17;;;;;;;2.30;1.20;;;;;;;;;;5054590;28;20391;-6
2021/05/23 06:18:43;;;;;;;3.53;1.35;;;;;;;;;;5054316;28;20033;-6
2021/05/23 06:21:08;;;;;;;1.92;1.20;;;;;;;;;;5054680;28;20060;-6
2021/05/23 06:23:33;;;;;;;1.60;1.10;;;;;;;;;;5054705;28;20021;-6
2021/05/23 06:25:59;;;;;;;3.00;1.48;;;;;;;;;;5054439;28;20521;-6
2021/05/23 06:28:24;;;;;;;1.85;1.25;;;;;;;;;;5054397;28;20020;-6
2021/05/23 06:30:50;;;;;;;1.95;1.27;;;;;;;;;;5054156;28;20027;-6
2021/05/23 06:33:15;;;;;;;3.35;1.20;;;;;;;;;;5054145;28;20025;-6
2021/05/23 06:35:41;;;;;;;1.80;1.10;;;;;;;;;;5054170;28;20086;-6
2021/05/23 06:38:06;;;;;;;4.80;1.60;;;;;;;;;;5054018;28;20064;-6
2021/05/23 06:40:32;;;;;;;4.35;1.00;;;;;;;;;;5054016;28;20075;-7
2021/05/23 06:42:57;;;;;;;1.92;1.00;;;;;;;;;;5053969;28;20017;-7
2021/05/23 06:45:23;;;;;;;0.93;0.85;;;;;;;;;;5054265;28;20056;-5
2021/05/23 06:47:48;;;;;;;1.77;1.33;;;;;;;;;;5054181;28;20028;-5
2021/05/23 06:50:13;;;;;;;2.33;1.10;;;;;;;;;;5053841;28;20029;-6
2021/05/23 06:52:39;;;;;;;2.03;1.17;;;;;;;;;;5054165;28;20064;-5
2021/05/23 06:55:05;;;;;;;2.95;0.85;;;;;;;;;;5053402;28;20079;-6
2021/05/23 06:57:31;;;;;;;1.73;0.63;;;;;;;;;;5053763;28;20041;-6
2021/05/23 06:59:56;;;;;;;2.72;0.60;;;;;;;;;;5053073;28;20024;-6
2021/05/23 07:02:21;;;;;;;2.65;0.88;;;;;;;;;;5053714;28;20029;-5
2021/05/23 07:04:47;;;;;;;2.28;1.30;;;;;;;;;;5053602;28;20028;-5
2021/05/23 07:07:12;;;;;;;1.23;1.00;;;;;;;;;;5052143;28;20017;-5
2021/05/23 07:09:39;;;;;;;5.10;0.98;;;;;;;;;;5053535;28;20033;-6
2021/05/23 07:12:05;;;;;;;4.70;1.30;;;;;;;;;;5053452;28;20078;-6
2021/05/23 07:14:30;;;;;;;2.85;0.80;;;;;;;;;;5053328;28;20073;-6
2021/05/23 07:16:55;;;;;;;6.93;1.70;;;;;;;;;;5053308;28;20024;-6
2021/05/23 07:19:21;;;;;;;4.85;1.48;;;;;;;;;;5053380;28;20472;-12
2021/05/23 07:21:46;;;;;;;8.00;1.27;;;;;;;;;;5053201;28;20105;-5
2021/05/23 07:24:12;;;;;;;5.13;2.10;;;;;;;;;;5053462;28;20043;-7
2021/05/23 07:26:38;;;;;;;9.23;2.85;;;;;;;;;;5053525;28;20028;-6
2021/05/23 07:29:03;;;;;;;4.53;1.35;;;;;;;;;;5053114;28;20112;-7
2021/05/23 07:31:31;;;;;;;7.97;2.97;;;;;;;;;;5053101;28;20059;-5
2021/05/23 07:33:56;;;;;;;3.97;1.50;;;;;;;;;;5052981;28;20548;-6
2021/05/23 07:36:22;;;;;;;4.97;1.27;;;;;;;;;;5053338;28;20095;-8
2021/05/23 07:38:47;;;;;;;4.93;1.50;;;;;;;;;;5053212;28;20041;-5
2021/05/23 07:41:13;;;;;;;7.88;1.50;;;;;;;;;;5053182;28;20117;-6
2021/05/23 07:43:39;;;;;;;6.60;1.20;;;;;;;;;;5053101;28;20032;-6
2021/05/23 07:46:04;;;;;;;3.05;1.10;;;;;;;;;;5053016;28;20024;-6
2021/05/23 07:48:31;;;;;;;8.13;1.50;;;;;;;;;;5053171;28;20024;-6
2021/05/23 07:50:56;;;;;;;9.50;2.15;;;;;;;;;;5052625;28;20025;-7
2021/05/23 07:53:22;;;;;;;10.13;2.40;;;;;;;;;;5052762;28;20063;-6
2021/05/23 07:55:47;;;;;;;8.30;2.50;;;;;;;;;;5052472;28;20049;-6
2021/05/23 07:58:13;;;;;;;8.02;1.75;;;;;;;;;;5052751;28;20049;-5
2021/05/23 08:00:38;;;;;;;12.45;2.05;;;;;;;;;;5052663;28;20571;-5
2021/05/23 08:03:04;;;;;;;9.63;3.72;;;;;;;;;;5052820;28;20021;-7
2021/05/23 08:05:29;;;;;;;6.03;1.65;;;;;;;;;;5052514;28;20475;-6
2021/05/23 08:07:55;;;;;;;5.70;1.95;;;;;;;;;;5052443;28;20175;-5
2021/05/23 08:10:20;;;;;;;10.63;2.95;;;;;;;;;;5052568;28;20021;-6
2021/05/23 08:12:45;;;;;;;5.45;2.05;;;;;;;;;;5050564;28;20115;-7
2021/05/23 08:15:13;;;;;;;0.30;0.20;;;;;;;;;;5052568;28;20092;-6
2021/05/23 08:17:39;;;;;;;2.85;0.40;;;;;;;;;;5052569;28;20166;-5
2021/05/23 08:20:04;;;;;;;2.67;0.95;;;;;;;;;;5052208;28;20059;-6
2021/05/23 08:22:30;;;;;;;4.28;1.02;;;;;;;;;;5052631;28;20029;-5
2021/05/23 08:24:55;;;;;;;2.92;1.50;;;;;;;;;;5052204;28;20569;-4
2021/05/23 08:27:20;;;;;;;8.82;1.75;;;;;;;;;;5052233;28;20039;-6
2021/05/23 08:29:46;;;;;;;13.40;1.67;;;;;;;;;;5052278;28;20017;-5
2021/05/23 08:32:11;;;;;;;12.55;2.35;;;;;;;;;;5052184;28;20025;-6
2021/05/23 08:34:37;;;;;;;6.05;1.75;;;;;;;;;;5052178;28;20017;-6
2021/05/23 08:37:02;;;;;;;5.35;1.48;;;;;;;;;;5052016;28;20037;-5
2021/05/23 08:39:31;;;;;;;0.73;0.70;;;;;;;;;;5052144;28;20028;-6
2021/05/23 08:41:56;;;;;;;7.05;1.67;;;;;;;;;;5052036;28;20491;-5
2021/05/23 08:44:23;;;;;;;2.17;0.90;;;;;;;;;;5052036;28;20055;-6
2021/05/23 08:46:50;;;;;;;13.82;2.47;;;;;;;;;;5052072;28;20647;-7
2021/05/23 08:49:21;;;;;;;10.52;2.40;;;;;;;;;;5052063;28;20100;-5
2021/05/23 08:51:47;;;;;;;13.07;3.42;;;;;;;;;;5052131;28;20084;-5
2021/05/23 08:54:13;;;;;;;5.65;1.80;;;;;;;;;;5051950;28;20072;-6
2021/05/23 08:56:40;;;;;;;3.40;1.85;;;;;;;;;;5051915;28;20028;-6
2021/05/23 08:59:05;;;;;;;8.02;2.88;;;;;;;;;;5052182;28;20082;-6
2021/05/23 09:01:31;;;;;;;9.50;2.83;;;;;;;;;;5051938;28;20111;-5
2021/05/23 09:03:57;;;;;;;6.95;2.65;;;;;;;;;;5051832;28;20029;-5
2021/05/23 09:06:26;;;;;;;3.55;1.42;;;;;;;;;;5051939;28;20028;-5
2021/05/23 09:08:56;;;;;;;4.63;1.13;;;;;;;;;;5051881;28;20009;-5
2021/05/23 09:11:22;;;;;;;3.45;1.42;;;;;;;;;;5051968;28;20022;-5
2021/05/23 09:13:49;;;;;;;3.63;1.63;;;;;;;;;;5052071;28;20017;-5
2021/05/23 09:16:14;;;;;;;9.80;2.45;;;;;;;;;;5052065;28;20122;-6
2021/05/23 09:18:40;;;;;;;4.93;2.15;;;;;;;;;;5051725;28;20468;-6
2021/05/23 09:21:05;;;;;;;5.75;1.75;;;;;;;;;;5052019;28;20055;-7
2021/05/23 09:23:39;;;;;;;7.13;1.60;;;;;;;;;;5054027;28;20025;-6
2021/05/23 09:26:05;;;;;;;3.47;1.70;;;;;;;;;;5055500;28;20036;-5
2021/05/23 09:28:30;;;;;;;9.40;1.98;;;;;;;;;;5055529;28;20017;-6
2021/05/23 09:30:56;;;;;;;8.77;2.13;;;;;;;;;;5053966;28;20476;-5
2021/05/23 09:33:21;;;;;;;3.92;1.70;;;;;;;;;;5054141;28;20021;-5
2021/05/23 09:35:47;;;;;;;5.30;1.55;;;;;;;;;;5055345;28;20053;-4
2021/05/23 09:38:14;;;;;;;1.10;0.77;;;;;;;;;;5055397;28;20725;-5
2021/05/23 09:40:41;;;;;;;2.25;1.55;;;;;;;;;;5055305;28;20017;-5
2021/05/23 09:43:08;;;;;;;12.85;4.20;;;;;;;;;;5055092;28;20467;-7
2021/05/23 09:45:39;;;;;;;8.25;1.52;;;;;;;;;;5055032;28;20502;-6
2021/05/23 09:48:06;;;;;;;5.75;2.40;;;;;;;;;;5055343;28;20025;-5
2021/05/23 09:50:32;;;;;;;7.97;2.35;;;;;;;;;;5055377;28;20380;-7
2021/05/23 09:52:58;;;;;;;12.00;2.05;;;;;;;;;;5053631;28;20055;-5
2021/05/23 09:55:23;;;;;;;7.28;2.53;;;;;;;;;;5054731;28;20475;-4
2021/05/23 09:57:49;;;;;;;6.88;2.40;;;;;;;;;;5054789;28;20377;-6
2021/05/23 10:00:15;;;;;;;10.30;2.10;;;;;;;;;;5055027;28;20020;-5
2021/05/23 10:02:49;;;;;;;3.47;1.80;;;;;;;;;;5055170;28;20035;-5
2021/05/23 10:05:15;;;;;;;5.43;1.70;;;;;;;;;;5054642;28;20051;-5
2021/05/23 10:07:40;;;;;;;5.22;2.00;;;;;;;;;;5054768;28;20512;-7
2021/05/23 10:10:06;;;;;;;0.57;0.57;;;;;;;;;;5054632;28;20115;-5
2021/05/23 10:12:34;;;;;;;5.90;2.40;;;;;;;;;;5053290;28;20029;-7
2021/05/23 10:15:00;;;;;;;3.72;2.33;;;;;;;;;;5054490;28;20059;-6
2021/05/23 10:17:26;;;;;;;6.80;2.70;;;;;;;;;;5054549;28;20041;-6
2021/05/23 10:19:51;;;;;;;4.43;1.80;;;;;;;;;;5054719;28;20033;-5
2021/05/23 10:22:17;;;;;;;8.60;1.48;;;;;;;;;;5054637;28;20426;-6
2021/05/23 10:24:49;;;;;;;5.88;2.47;;;;;;;;;;5054478;28;20032;-6
2021/05/23 10:27:19;;;;;;;5.38;2.35;;;;;;;;;;5054202;28;20384;-5
2021/05/23 10:29:47;;;;;;;10.18;3.88;;;;;;;;;;5054372;28;20036;-7
2021/05/23 10:32:14;;;;;;;4.32;2.85;;;;;;;;;;5054180;28;20044;-5
2021/05/23 10:34:46;;;;;;;17.15;5.30;;;;;;;;;;5053414;28;20028;-5
2021/05/23 10:37:32;;;;;;;13.10;2.95;;;;;;;;;;5054095;28;20041;-6
2021/05/23 10:39:57;;;;;;;5.45;2.53;;;;;;;;;;5053815;28;20107;-5
2021/05/23 10:42:26;;;;;;;13.18;3.00;;;;;;;;;;5052770;28;20029;-6
2021/05/23 10:44:52;;;;;;;8.13;3.40;;;;;;;;;;5054251;28;20025;-7
2021/05/23 10:47:21;;;;;;;13.32;4.15;;;;;;;;;;5053868;28;20403;-6
2021/05/23 10:49:53;;;;;;;9.68;2.58;;;;;;;;;;5053875;28;20036;-6
2021/05/23 10:52:19;;;;;;;8.35;2.67;;;;;;;;;;5053908;28;20388;-5
2021/05/23 10:54:59;;;;;;;7.00;2.08;;;;;;;;;;5053604;28;20045;-5
2021/05/23 10:57:25;;;;;;;6.15;1.65;;;;;;;;;;5053714;28;20041;-6
2021/05/23 11:00:00;;;;;;;6.57;1.20;;;;;;;;;;5052534;28;20032;-5
2021/05/23 11:02:36;;;;;;;9.27;2.58;;;;;;;;;;5053918;28;20053;-5
2021/05/23 11:05:05;;;;;;;3.42;1.17;;;;;;;;;;5053764;28;20040;-5
2021/05/23 11:07:30;;;;;;;5.05;2.25;;;;;;;;;;5053233;28;20017;-5
2021/05/23 11:09:56;;;;;;;0.20;0.20;;;;;;;;;;5053310;28;20109;-5
2021/05/23 11:12:21;;;;;;;6.35;2.40;;;;;;;;;;5053574;28;20071;-6
2021/05/23 11:14:56;;;;;;;3.03;1.90;;;;;;;;;;5053470;28;20048;-5
2021/05/23 11:17:22;;;;;;;4.50;2.35;;;;;;;;;;5053330;28;20111;-5
2021/05/23 11:19:48;;;;;;;5.60;1.92;;;;;;;;;;5053349;28;20017;-5
2021/05/23 11:22:14;;;;;;;13.10;3.50;;;;;;;;;;5053313;28;20068;-5
2021/05/23 11:24:41;;;;;;;5.15;2.42;;;;;;;;;;5051931;28;20021;-4
2021/05/23 11:27:18;;;;;;;13.98;3.10;;;;;;;;;;5053163;28;20490;-4
2021/05/23 11:29:44;;;;;;;7.25;2.40;;;;;;;;;;5051846;28;20129;-5
2021/05/23 11:32:14;;;;;;;12.85;2.30;;;;;;;;;;5053074;28;20028;-5
2021/05/23 11:34:39;;;;;;;2.33;1.23;;;;;;;;;;5053080;28;20044;-6
2021/05/23 11:37:05;;;;;;;5.15;1.40;;;;;;;;;;5052969;28;20036;-6
2021/05/23 11:39:30;;;;;;;0.73;0.47;;;;;;;;;;5052929;28;20033;-6
2021/05/23 11:41:57;;;;;;;12.82;2.90;;;;;;;;;;5052933;28;20070;-5
2021/05/23 11:44:32;;;;;;;8.68;3.42;;;;;;;;;;5052905;28;20029;-6
2021/05/23 11:46:59;;;;;;;9.07;2.40;;;;;;;;;;5052886;28;20025;-6
2021/05/23 11:49:27;;;;;;;12.30;2.47;;;;;;;;;;5052852;28;20021;-7
2021/05/23 11:51:59;;;;;;;6.80;2.60;;;;;;;;;;5052723;28;20504;-6
2021/05/23 11:54:25;;;;;;;15.52;2.97;;;;;;;;;;5052727;28;20068;-6
2021/05/23 11:56:50;;;;;;;8.07;1.45;;;;;;;;;;5052655;28;20479;-6
2021/05/23 11:59:16;;;;;;;9.68;3.38;;;;;;;;;;5052817;28;20040;-5
2021/05/23 12:01:47;;;;;;;6.55;2.50;;;;;;;;;;5052261;28;20017;-5
2021/05/23 12:04:14;;;;;;;1.75;1.52;;;;;;;;;;5052756;28;20373;-6
2021/05/23 12:06:40;;;;;;;5.95;1.75;;;;;;;;;;5052829;28;20021;-7
2021/05/23 12:09:06;;;;;;;6.05;2.15;;;;;;;;;;5052719;28;20025;-6
2021/05/23 12:11:38;;;;;;;4.18;2.10;;;;;;;;;;5034599;28;20031;-5
2021/05/23 12:14:04;;;;;;;0.77;0.68;;;;;;;;;;5051004;28;20484;-6
2021/05/23 12:16:30;;;;;;;8.15;2.03;;;;;;;;;;5052132;28;20032;-5
2021/05/23 12:18:57;;;;;;;3.60;1.40;;;;;;;;;;5051005;28;20052;-6
2021/05/23 12:21:25;;;;;;;1.33;0.98;;;;;;;;;;5052277;28;20016;-5
2021/05/23 12:23:53;;;;;;;10.50;3.58;;;;;;;;;;5052356;28;20032;-6
2021/05/23 12:26:20;;;;;;;6.40;1.80;;;;;;;;;;5052518;28;20013;-6
2021/05/23 12:28:50;;;;;;;8.88;3.10;;;;;;;;;;5052225;28;20108;-6
2021/05/23 12:31:20;;;;;;;2.45;2.25;;;;;;;;;;5051160;28;20533;-7
2021/05/23 12:33:50;;;;;;;4.00;1.73;;;;;;;;;;5050164;28;20029;-5
2021/05/23 12:36:16;;;;;;;15.88;3.47;;;;;;;;;;5052119;28;20037;-7
2021/05/23 12:38:52;;;;;;;8.48;1.95;;;;;;;;;;5052376;28;20041;-6
2021/05/23 12:41:18;;;;;;;1.35;1.25;;;;;;;;;;5050873;28;20044;-7
2021/05/23 12:43:43;;;;;;;5.07;2.42;;;;;;;;;;5052056;28;20483;-7
2021/05/23 12:46:09;;;;;;;2.70;1.83;;;;;;;;;;5052040;28;20029;-6
2021/05/23 12:48:36;;;;;;;7.07;2.72;;;;;;;;;;5052174;28;20166;-7
2021/05/23 12:51:07;;;;;;;9.20;2.10;;;;;;;;;;5052249;28;20033;-6
2021/05/23 12:53:33;;;;;;;5.72;1.40;;;;;;;;;;5052081;28;20036;-5
2021/05/23 12:56:15;;;;;;;3.15;2.10;;;;;;;;;;5051883;28;20080;-6
2021/05/23 12:58:41;;;;;;;5.10;1.90;;;;;;;;;;5054590;28;20504;-6
2021/05/23 13:01:12;;;;;;;6.47;2.90;;;;;;;;;;5056228;28;20013;-7
2021/05/23 13:03:37;;;;;;;1.33;0.73;;;;;;;;;;5055896;28;20029;-6
2021/05/23 13:06:02;;;;;;;4.18;1.63;;;;;;;;;;5056121;28;20043;-7
2021/05/23 13:08:31;;;;;;;1.80;1.20;;;;;;;;;;5054576;28;20075;-6
2021/05/23 13:10:59;;;;;;;3.55;0.85;;;;;;;;;;5055870;28;20028;-6
2021/05/23 13:13:24;;;;;;;9.98;2.63;;;;;;;;;;5055810;28;20029;-6
2021/05/23 13:15:49;;;;;;;8.35;2.10;;;;;;;;;;5056020;28;20020;-6
2021/05/23 13:18:16;;;;;;;6.80;2.58;;;;;;;;;;5055505;28;20036;-7
2021/05/23 13:20:41;;;;;;;6.25;1.73;;;;;;;;;;5055593;28;20017;-6
2021/05/23 13:23:08;;;;;;;12.27;3.50;;;;;;;;;;5055529;28;20029;-6
2021/05/23 13:25:33;;;;;;;9.07;2.47;;;;;;;;;;5055760;28;20029;-6
2021/05/23 13:27:59;;;;;;;11.60;2.75;;;;;;;;;;5055484;28;20479;-6
2021/05/23 13:30:26;;;;;;;11.27;3.10;;;;;;;;;;5055533;28;20013;-5
2021/05/23 13:32:55;;;;;;;3.97;1.95;;;;;;;;;;5055895;28;20033;-7
2021/05/23 13:35:22;;;;;;;10.40;2.22;;;;;;;;;;5055314;28;20075;-6
2021/05/23 13:37:50;;;;;;;9.68;3.00;;;;;;;;;;5055570;28;20048;-5
2021/05/23 13:40:15;;;;;;;0.65;0.45;;;;;;;;;;5055217;28;20486;-7
2021/05/23 13:42:41;;;;;;;5.80;1.75;;;;;;;;;;5055264;28;20029;-6
2021/05/23 13:45:07;;;;;;;6.13;2.35;;;;;;;;;;5055018;28;20024;-6
2021/05/23 13:47:33;;;;;;;2.17;1.33;;;;;;;;;;5055453;28;20233;-6
2021/05/23 13:49:58;;;;;;;6.60;1.75;;;;;;;;;;5055013;28;20013;-7
2021/05/23 13:52:24;;;;;;;3.85;1.42;;;;;;;;;;5055178;28;20102;-6
2021/05/23 13:54:49;;;;;;;0.60;0.52;;;;;;;;;;5054805;28;20045;-6
2021/05/23 13:57:15;;;;;;;5.25;2.38;;;;;;;;;;5055072;28;20559;-6
2021/05/23 13:59:40;;;;;;;5.30;2.05;;;;;;;;;;5054919;28;20060;-7
2021/05/23 14:02:05;;;;;;;2.15;0.73;;;;;;;;;;5054811;28;20032;-7
2021/05/23 14:04:31;;;;;;;6.15;1.45;;;;;;;;;;5054782;28;20047;-7
2021/05/23 14:06:57;;;;;;;0.80;0.63;;;;;;;;;;5053481;28;20025;-7
2021/05/23 14:09:22;;;;;;;3.92;1.20;;;;;;;;;;5051960;28;20023;-6
2021/05/23 14:11:48;;;;;;;2.25;1.25;;;;;;;;;;5053493;28;20029;-6
2021/05/23 14:14:14;;;;;;;1.60;0.60;;;;;;;;;;5054465;28;20391;-6
2021/05/23 14:16:39;;;;;;;1.58;0.75;;;;;;;;;;5054579;28;20025;-6
2021/05/23 14:19:05;;;;;;;1.85;1.17;;;;;;;;;;5054443;28;20086;-6
2021/05/23 14:21:31;;;;;;;4.47;0.65;;;;;;;;;;5054431;28;20021;-5
2021/05/23 14:23:56;;;;;;;1.35;0.82;;;;;;;;;;5054446;28;20456;-6
2021/05/23 14:26:23;;;;;;;1.20;0.63;;;;;;;;;;5054643;28;20068;-6
2021/05/23 14:28:49;;;;;;;2.17;0.82;;;;;;;;;;5054311;28;20036;-5
2021/05/23 14:31:15;;;;;;;12.80;0.80;;;;;;;;;;5054264;28;20029;-6
2021/05/23 14:33:43;;;;;;;2.55;0.40;;;;;;;;;;5054221;28;20016;-6
2021/05/23 14:36:08;;;;;;;1.02;0.65;;;;;;;;;;5054067;28;20035;-6
2021/05/23 14:38:34;;;;;;;3.45;0.70;;;;;;;;;;5054494;28;20036;-6
2021/05/23 14:40:59;;;;;;;5.80;0.82;;;;;;;;;;5054067;28;20033;-6
2021/05/23 14:43:29;;;;;;;1.65;0.55;;;;;;;;;;5054323;28;20025;-6
2021/05/23 14:45:55;;;;;;;3.92;1.38;;;;;;;;;;5054029;28;20078;-6
2021/05/23 14:48:21;;;;;;;0.50;0.45;;;;;;;;;;5054010;28;20028;-7
2021/05/23 14:50:47;;;;;;;2.22;0.50;;;;;;;;;;5053911;28;20102;-6